QFA515 YBBN-YSSY
Flight info
| Callsign | QFA515 |
|---|---|
| Flight time | 1h 13m |
| Altitude | 36000 |
| Route | SANEG2/19L SANEG H91 IGDAM H652 TESAT |
| Aircraft | B738/M-SDE2E3FGHIRWXY/LB1 |
Departure
| Time | 2026-04-24 04:08 |
|---|---|
| Airport | Brisbane International Airport (YBBN) |
Arrival
| Time | 2026-04-24 05:21 |
|---|---|
| Airport | Sydney Kingsford Smith International Airport (YSSY) |
| Time | Latitude | Longitude | Altitude | Speed | Heading |
|---|---|---|---|---|---|
| 2026-04-24 03:44 | -27.38238 | 153.12224 | 23 ft | 0 kts | 204° |
| 2026-04-24 03:59 | -27.38232 | 153.12227 | 23 ft | 2 kts | 204° |
| 2026-04-24 03:59 | -27.38224 | 153.12231 | 23 ft | 2 kts | 204° |
| 2026-04-24 03:59 | -27.38209 | 153.12234 | 22 ft | 2 kts | 177° |
| 2026-04-24 03:59 | -27.38195 | 153.12231 | 22 ft | 2 kts | 159° |
| 2026-04-24 04:00 | -27.38181 | 153.12224 | 22 ft | 2 kts | 139° |
| 2026-04-24 04:00 | -27.38172 | 153.12212 | 22 ft | 1 kts | 121° |
| 2026-04-24 04:00 | -27.38169 | 153.12205 | 22 ft | 1 kts | 115° |
| 2026-04-24 04:00 | -27.38168 | 153.12204 | 22 ft | 0 kts | 117° |
| 2026-04-24 04:02 | -27.38181 | 153.12233 | 22 ft | 15 kts | 117° |
| 2026-04-24 04:03 | -27.38224 | 153.12346 | 22 ft | 14 kts | 116° |
| 2026-04-24 04:03 | -27.38280 | 153.12473 | 21 ft | 24 kts | 117° |
| 2026-04-24 04:03 | -27.38251 | 153.12616 | 18 ft | 21 kts | 28° |
| 2026-04-24 04:03 | -27.38222 | 153.12633 | 18 ft | 20 kts | 27° |
| 2026-04-24 04:04 | -27.38200 | 153.12645 | 18 ft | 19 kts | 27° |
| 2026-04-24 04:04 | -27.38173 | 153.12660 | 18 ft | 19 kts | 26° |
| 2026-04-24 04:04 | -27.38051 | 153.12730 | 18 ft | 22 kts | 28° |
| 2026-04-24 04:04 | -27.37882 | 153.12830 | 17 ft | 31 kts | 29° |
| 2026-04-24 04:05 | -27.37663 | 153.12955 | 16 ft | 35 kts | 26° |
| 2026-04-24 04:05 | -27.37455 | 153.13071 | 15 ft | 32 kts | 27° |
| 2026-04-24 04:05 | -27.37279 | 153.13178 | 15 ft | 23 kts | 52° |
| 2026-04-24 04:05 | -27.37315 | 153.13327 | 15 ft | 18 kts | 118° |
| 2026-04-24 04:06 | -27.37327 | 153.13353 | 15 ft | 0 kts | 117° |
| 2026-04-24 04:06 | -27.37340 | 153.13376 | 15 ft | 11 kts | 126° |
| 2026-04-24 04:07 | -27.37443 | 153.13434 | 15 ft | 18 kts | 182° |
| 2026-04-24 04:07 | -27.37553 | 153.13380 | 15 ft | 19 kts | 206° |
| 2026-04-24 04:07 | -27.37847 | 153.13216 | 15 ft | 87 kts | 207° |
| 2026-04-24 04:07 | -27.38616 | 153.12775 | 19 ft | 157 kts | 206° |
| 2026-04-24 04:08 | -27.39705 | 153.12083 | 274 ft | 195 kts | 207° |
| 2026-04-24 04:08 | -27.41025 | 153.11223 | 467 ft | 243 kts | 206° |
| 2026-04-24 04:08 | -27.42619 | 153.10199 | 720 ft | 264 kts | 207° |
| 2026-04-24 04:08 | -27.44183 | 153.09363 | 1053 ft | 236 kts | 193° |
| 2026-04-24 04:09 | -27.45731 | 153.09319 | 1208 ft | 219 kts | 159° |
| 2026-04-24 04:09 | -27.46956 | 153.10239 | 1334 ft | 209 kts | 133° |
| 2026-04-24 04:09 | -27.47839 | 153.11539 | 1389 ft | 206 kts | 122° |
| 2026-04-24 04:09 | -27.48519 | 153.12941 | 1428 ft | 202 kts | 122° |
| 2026-04-24 04:10 | -27.49396 | 153.14123 | 1434 ft | 200 kts | 145° |
| 2026-04-24 04:10 | -27.50819 | 153.14598 | 1799 ft | 228 kts | 178° |
| 2026-04-24 04:10 | -27.52421 | 153.14293 | 2554 ft | 243 kts | 190° |
| 2026-04-24 04:11 | -27.55773 | 153.13373 | 4333 ft | 256 kts | 191° |
| 2026-04-24 04:11 | -27.57474 | 153.12790 | 5315 ft | 258 kts | 194° |
| 2026-04-24 04:11 | -27.59176 | 153.12120 | 6236 ft | 263 kts | 195° |
| 2026-04-24 04:11 | -27.60906 | 153.11423 | 7149 ft | 267 kts | 195° |
| 2026-04-24 04:12 | -27.62681 | 153.10748 | 7995 ft | 271 kts | 194° |
| 2026-04-24 04:12 | -27.64486 | 153.10132 | 8852 ft | 275 kts | 193° |
| 2026-04-24 04:12 | -27.66327 | 153.09531 | 9701 ft | 280 kts | 192° |
| 2026-04-24 04:12 | -27.68207 | 153.08922 | 10519 ft | 285 kts | 192° |
| 2026-04-24 04:13 | -27.70168 | 153.08287 | 11082 ft | 299 kts | 193° |
| 2026-04-24 04:13 | -27.72213 | 153.07617 | 11592 ft | 314 kts | 193° |
| 2026-04-24 04:13 | -27.74356 | 153.06906 | 12133 ft | 328 kts | 193° |
| 2026-04-24 04:13 | -27.76560 | 153.06169 | 12851 ft | 336 kts | 194° |
| 2026-04-24 04:14 | -27.78808 | 153.05414 | 13644 ft | 340 kts | 194° |
| 2026-04-24 04:14 | -27.81108 | 153.04640 | 14465 ft | 344 kts | 194° |
| 2026-04-24 04:14 | -27.83388 | 153.03821 | 15286 ft | 347 kts | 197° |
| 2026-04-24 04:14 | -27.85659 | 153.02866 | 16031 ft | 352 kts | 199° |
| 2026-04-24 04:15 | -27.87951 | 153.01829 | 16762 ft | 357 kts | 199° |
| 2026-04-24 04:15 | -27.90252 | 153.00772 | 17491 ft | 361 kts | 199° |
| 2026-04-24 04:15 | -27.92591 | 152.99709 | 18210 ft | 364 kts | 199° |
| 2026-04-24 04:15 | -27.94975 | 152.98642 | 18883 ft | 369 kts | 199° |
| 2026-04-24 04:16 | -27.97375 | 152.97583 | 19517 ft | 374 kts | 198° |
| 2026-04-24 04:16 | -27.99819 | 152.96512 | 20162 ft | 378 kts | 198° |
| 2026-04-24 04:16 | -28.02289 | 152.95432 | 20820 ft | 382 kts | 199° |
| 2026-04-24 04:16 | -28.04793 | 152.94334 | 21452 ft | 385 kts | 199° |
| 2026-04-24 04:17 | -28.07312 | 152.93231 | 22035 ft | 390 kts | 199° |
| 2026-04-24 04:17 | -28.09841 | 152.92122 | 22592 ft | 395 kts | 199° |
| 2026-04-24 04:17 | -28.12340 | 152.91019 | 23169 ft | 398 kts | 199° |
| 2026-04-24 04:17 | -28.14919 | 152.89876 | 23737 ft | 402 kts | 199° |
| 2026-04-24 04:18 | -28.17537 | 152.88711 | 24342 ft | 404 kts | 199° |
| 2026-04-24 04:18 | -28.20155 | 152.87547 | 24937 ft | 406 kts | 200° |
| 2026-04-24 04:18 | -28.22807 | 152.86366 | 25498 ft | 408 kts | 199° |
| 2026-04-24 04:18 | -28.25463 | 152.85182 | 26031 ft | 411 kts | 200° |
| 2026-04-24 04:19 | -28.28121 | 152.83997 | 26566 ft | 413 kts | 200° |
| 2026-04-24 04:19 | -28.30783 | 152.82808 | 27097 ft | 415 kts | 200° |
| 2026-04-24 04:19 | -28.33501 | 152.81595 | 27542 ft | 418 kts | 200° |
| 2026-04-24 04:19 | -28.36218 | 152.80382 | 28054 ft | 420 kts | 200° |
| 2026-04-24 04:20 | -28.38948 | 152.79164 | 28473 ft | 423 kts | 200° |
| 2026-04-24 04:20 | -28.41691 | 152.77939 | 28987 ft | 424 kts | 200° |
| 2026-04-24 04:20 | -28.44454 | 152.76704 | 29402 ft | 427 kts | 200° |
| 2026-04-24 04:20 | -28.47232 | 152.75462 | 29767 ft | 432 kts | 200° |
| 2026-04-24 04:21 | -28.50053 | 152.74200 | 30208 ft | 433 kts | 200° |
| 2026-04-24 04:21 | -28.52850 | 152.72949 | 30732 ft | 431 kts | 200° |
| 2026-04-24 04:21 | -28.55637 | 152.71701 | 31261 ft | 428 kts | 201° |
| 2026-04-24 04:21 | -28.58388 | 152.70468 | 31737 ft | 426 kts | 201° |
| 2026-04-24 04:22 | -28.61155 | 152.69228 | 32211 ft | 424 kts | 201° |
| 2026-04-24 04:22 | -28.63883 | 152.68004 | 32624 ft | 423 kts | 201° |
| 2026-04-24 04:22 | -28.66610 | 152.66780 | 32987 ft | 423 kts | 202° |
| 2026-04-24 04:22 | -28.69329 | 152.65559 | 33441 ft | 420 kts | 202° |
| 2026-04-24 04:23 | -28.72060 | 152.64333 | 33922 ft | 416 kts | 202° |
| 2026-04-24 04:23 | -28.74733 | 152.63132 | 34364 ft | 413 kts | 202° |
| 2026-04-24 04:23 | -28.77411 | 152.61926 | 34724 ft | 411 kts | 202° |
| 2026-04-24 04:23 | -28.80051 | 152.60738 | 35004 ft | 410 kts | 202° |
| 2026-04-24 04:24 | -28.82717 | 152.59535 | 35234 ft | 411 kts | 202° |
| 2026-04-24 04:24 | -28.85373 | 152.58301 | 35450 ft | 412 kts | 205° |
| 2026-04-24 04:24 | -28.87959 | 152.56918 | 35694 ft | 412 kts | 207° |
| 2026-04-24 04:24 | -28.90507 | 152.55431 | 36014 ft | 412 kts | 208° |
| 2026-04-24 04:25 | -28.93040 | 152.53896 | 36311 ft | 411 kts | 209° |
| 2026-04-24 04:25 | -28.95590 | 152.52335 | 36325 ft | 414 kts | 209° |
| 2026-04-24 04:25 | -29.00635 | 152.49260 | 36332 ft | 410 kts | 208° |
| 2026-04-24 04:26 | -29.05649 | 152.46234 | 36336 ft | 409 kts | 208° |
| 2026-04-24 04:26 | -29.10674 | 152.43219 | 36340 ft | 409 kts | 208° |
| 2026-04-24 04:27 | -29.15637 | 152.40251 | 36346 ft | 409 kts | 208° |
| 2026-04-24 04:27 | -29.20667 | 152.37242 | 36343 ft | 409 kts | 208° |
| 2026-04-24 04:28 | -29.25529 | 152.34332 | 36348 ft | 409 kts | 208° |
| 2026-04-24 04:28 | -29.30610 | 152.31287 | 36349 ft | 408 kts | 208° |
| 2026-04-24 04:29 | -29.35658 | 152.28258 | 36360 ft | 408 kts | 208° |
| 2026-04-24 04:29 | -29.40717 | 152.25217 | 36366 ft | 408 kts | 208° |
| 2026-04-24 04:30 | -29.45762 | 152.22183 | 36370 ft | 408 kts | 208° |
| 2026-04-24 04:30 | -29.50779 | 152.19165 | 36371 ft | 408 kts | 208° |
| 2026-04-24 04:31 | -29.55817 | 152.16128 | 36375 ft | 408 kts | 208° |
| 2026-04-24 04:31 | -29.60836 | 152.13101 | 36381 ft | 408 kts | 207° |
| 2026-04-24 04:32 | -29.65870 | 152.10066 | 36384 ft | 408 kts | 207° |
| 2026-04-24 04:32 | -29.71044 | 152.07342 | 36389 ft | 408 kts | 199° |
| 2026-04-24 04:33 | -29.76524 | 152.05608 | 36400 ft | 408 kts | 193° |
| 2026-04-24 04:33 | -29.82075 | 152.04225 | 36382 ft | 408 kts | 192° |
| 2026-04-24 04:34 | -29.87613 | 152.02861 | 36392 ft | 408 kts | 193° |
| 2026-04-24 04:34 | -29.93195 | 152.01443 | 36386 ft | 407 kts | 193° |
| 2026-04-24 04:35 | -29.98719 | 152.00014 | 36384 ft | 408 kts | 193° |
| 2026-04-24 04:35 | -30.04279 | 151.98561 | 36382 ft | 407 kts | 193° |
| 2026-04-24 04:36 | -30.09815 | 151.97110 | 36382 ft | 406 kts | 193° |
| 2026-04-24 04:36 | -30.15136 | 151.95712 | 36391 ft | 406 kts | 193° |
| 2026-04-24 04:37 | -30.20656 | 151.94261 | 36388 ft | 406 kts | 193° |
| 2026-04-24 04:37 | -30.26156 | 151.92816 | 36392 ft | 404 kts | 193° |
| 2026-04-24 04:38 | -30.31646 | 151.91313 | 36401 ft | 404 kts | 195° |
| 2026-04-24 04:38 | -30.36975 | 151.89183 | 36394 ft | 403 kts | 200° |
| 2026-04-24 04:39 | -30.42174 | 151.86736 | 36386 ft | 404 kts | 201° |
| 2026-04-24 04:39 | -30.47372 | 151.84253 | 36389 ft | 403 kts | 201° |
| 2026-04-24 04:40 | -30.52612 | 151.81775 | 36394 ft | 405 kts | 200° |
| 2026-04-24 04:40 | -30.57828 | 151.79326 | 36391 ft | 402 kts | 200° |
| 2026-04-24 04:41 | -30.63044 | 151.76884 | 36393 ft | 402 kts | 200° |
| 2026-04-24 04:41 | -30.68252 | 151.74448 | 36408 ft | 403 kts | 200° |
| 2026-04-24 04:42 | -30.73445 | 151.72018 | 36393 ft | 403 kts | 200° |
| 2026-04-24 04:42 | -30.78677 | 151.69566 | 36396 ft | 401 kts | 200° |
| 2026-04-24 04:43 | -30.83868 | 151.67129 | 36404 ft | 404 kts | 200° |
| 2026-04-24 04:43 | -30.89094 | 151.64676 | 36396 ft | 403 kts | 199° |
| 2026-04-24 04:44 | -30.94294 | 151.62231 | 36396 ft | 403 kts | 199° |
| 2026-04-24 04:44 | -30.99531 | 151.59766 | 36403 ft | 403 kts | 199° |
| 2026-04-24 04:45 | -31.04745 | 151.57307 | 36409 ft | 402 kts | 199° |
| 2026-04-24 04:45 | -31.09952 | 151.54851 | 36414 ft | 402 kts | 199° |
| 2026-04-24 04:46 | -31.15033 | 151.52452 | 36412 ft | 401 kts | 199° |
| 2026-04-24 04:46 | -31.20214 | 151.50001 | 36420 ft | 400 kts | 199° |
| 2026-04-24 04:47 | -31.25394 | 151.47546 | 36401 ft | 400 kts | 199° |
| 2026-04-24 04:47 | -31.30566 | 151.45093 | 36411 ft | 400 kts | 199° |
| 2026-04-24 04:48 | -31.35763 | 151.42627 | 36415 ft | 402 kts | 199° |
| 2026-04-24 04:48 | -31.40976 | 151.40172 | 36404 ft | 400 kts | 198° |
| 2026-04-24 04:49 | -31.46175 | 151.37845 | 36407 ft | 401 kts | 197° |
| 2026-04-24 04:49 | -31.51382 | 151.35542 | 36411 ft | 399 kts | 197° |
| 2026-04-24 04:50 | -31.56402 | 151.33315 | 36392 ft | 398 kts | 198° |
| 2026-04-24 04:50 | -31.61661 | 151.30968 | 36403 ft | 399 kts | 198° |
| 2026-04-24 04:51 | -31.66855 | 151.28642 | 36398 ft | 398 kts | 198° |
| 2026-04-24 04:51 | -31.72047 | 151.26314 | 36393 ft | 397 kts | 198° |
| 2026-04-24 04:52 | -31.77254 | 151.23975 | 36401 ft | 399 kts | 198° |
| 2026-04-24 04:52 | -31.79853 | 151.22804 | 36203 ft | 394 kts | 198° |
| 2026-04-24 04:52 | -31.82367 | 151.21669 | 35859 ft | 388 kts | 197° |
| 2026-04-24 04:53 | -31.84907 | 151.20522 | 35529 ft | 383 kts | 197° |
| 2026-04-24 04:53 | -31.87388 | 151.19403 | 35097 ft | 381 kts | 197° |
| 2026-04-24 04:53 | -31.89844 | 151.18295 | 34651 ft | 379 kts | 197° |
| 2026-04-24 04:53 | -31.92316 | 151.17180 | 34201 ft | 377 kts | 197° |
| 2026-04-24 04:54 | -31.94749 | 151.16083 | 33713 ft | 376 kts | 196° |
| 2026-04-24 04:54 | -31.97216 | 151.14973 | 33247 ft | 374 kts | 196° |
| 2026-04-24 04:54 | -31.99621 | 151.13896 | 32802 ft | 372 kts | 195° |
| 2026-04-24 04:54 | -32.02073 | 151.12799 | 32344 ft | 369 kts | 195° |
| 2026-04-24 04:55 | -32.04451 | 151.11736 | 31901 ft | 368 kts | 195° |
| 2026-04-24 04:55 | -32.06862 | 151.10654 | 31453 ft | 366 kts | 195° |
| 2026-04-24 04:55 | -32.09209 | 151.09601 | 31011 ft | 364 kts | 194° |
| 2026-04-24 04:55 | -32.11490 | 151.08577 | 30586 ft | 363 kts | 194° |
| 2026-04-24 04:56 | -32.13638 | 151.07611 | 30160 ft | 361 kts | 194° |
| 2026-04-24 04:56 | -32.16194 | 151.06464 | 29675 ft | 358 kts | 195° |
| 2026-04-24 04:56 | -32.18523 | 151.05415 | 29234 ft | 356 kts | 194° |
| 2026-04-24 04:56 | -32.20841 | 151.04370 | 28798 ft | 353 kts | 195° |
| 2026-04-24 04:57 | -32.23105 | 151.03351 | 28371 ft | 350 kts | 195° |
| 2026-04-24 04:57 | -32.25378 | 151.02325 | 27939 ft | 347 kts | 195° |
| 2026-04-24 04:57 | -32.27626 | 151.01311 | 27518 ft | 344 kts | 195° |
| 2026-04-24 04:57 | -32.29875 | 151.00296 | 27058 ft | 342 kts | 195° |
| 2026-04-24 04:58 | -32.32089 | 150.99298 | 26643 ft | 339 kts | 195° |
| 2026-04-24 04:58 | -32.34283 | 150.98306 | 26221 ft | 336 kts | 195° |
| 2026-04-24 04:58 | -32.36479 | 150.97314 | 25805 ft | 333 kts | 195° |
| 2026-04-24 04:58 | -32.38639 | 150.96338 | 25397 ft | 331 kts | 196° |
| 2026-04-24 04:59 | -32.40773 | 150.95371 | 24988 ft | 328 kts | 196° |
| 2026-04-24 04:59 | -32.42914 | 150.94402 | 24572 ft | 325 kts | 196° |
| 2026-04-24 04:59 | -32.45032 | 150.93445 | 24186 ft | 333 kts | 196° |
| 2026-04-24 04:59 | -32.47251 | 150.92473 | 23751 ft | 344 kts | 194° |
| 2026-04-24 05:00 | -32.49575 | 150.91710 | 23322 ft | 337 kts | 185° |
| 2026-04-24 05:00 | -32.51879 | 150.91557 | 22929 ft | 326 kts | 172° |
| 2026-04-24 05:00 | -32.54111 | 150.91835 | 22535 ft | 321 kts | 168° |
| 2026-04-24 05:00 | -32.56304 | 150.92241 | 22136 ft | 317 kts | 167° |
| 2026-04-24 05:01 | -32.58471 | 150.92671 | 21748 ft | 313 kts | 166° |
| 2026-04-24 05:01 | -32.60617 | 150.93091 | 21358 ft | 310 kts | 167° |
| 2026-04-24 05:01 | -32.62723 | 150.93491 | 20973 ft | 307 kts | 167° |
| 2026-04-24 05:01 | -32.64849 | 150.93881 | 20591 ft | 304 kts | 167° |
| 2026-04-24 05:02 | -32.66931 | 150.94257 | 20220 ft | 301 kts | 167° |
| 2026-04-24 05:02 | -32.68988 | 150.94624 | 19840 ft | 298 kts | 167° |
| 2026-04-24 05:02 | -32.71024 | 150.94987 | 19483 ft | 295 kts | 167° |
| 2026-04-24 05:02 | -32.73065 | 150.95349 | 19118 ft | 293 kts | 167° |
| 2026-04-24 05:03 | -32.75079 | 150.95709 | 18758 ft | 299 kts | 167° |
| 2026-04-24 05:03 | -32.77207 | 150.96094 | 18355 ft | 312 kts | 167° |
| 2026-04-24 05:03 | -32.79339 | 150.96475 | 17973 ft | 310 kts | 168° |
| 2026-04-24 05:03 | -32.81447 | 150.96848 | 17593 ft | 306 kts | 168° |
| 2026-04-24 05:04 | -32.83548 | 150.97218 | 17208 ft | 303 kts | 168° |
| 2026-04-24 05:04 | -32.85643 | 150.97588 | 16824 ft | 300 kts | 168° |
| 2026-04-24 05:04 | -32.87685 | 150.97951 | 16456 ft | 296 kts | 168° |
| 2026-04-24 05:04 | -32.89723 | 150.98314 | 16092 ft | 293 kts | 168° |
| 2026-04-24 05:05 | -32.91723 | 150.98671 | 15732 ft | 290 kts | 168° |
| 2026-04-24 05:05 | -32.93705 | 150.99023 | 15364 ft | 288 kts | 168° |
| 2026-04-24 05:05 | -32.95697 | 150.99379 | 15002 ft | 284 kts | 168° |
| 2026-04-24 05:05 | -32.97643 | 150.99727 | 14651 ft | 282 kts | 168° |
| 2026-04-24 05:06 | -32.99569 | 151.00072 | 14299 ft | 279 kts | 168° |
| 2026-04-24 05:06 | -33.01481 | 151.00413 | 13937 ft | 277 kts | 168° |
| 2026-04-24 05:06 | -33.03366 | 151.00749 | 13591 ft | 274 kts | 168° |
| 2026-04-24 05:06 | -33.05258 | 151.01090 | 13251 ft | 276 kts | 168° |
| 2026-04-24 05:07 | -33.07219 | 151.01442 | 12894 ft | 289 kts | 168° |
| 2026-04-24 05:07 | -33.09209 | 151.01800 | 12517 ft | 290 kts | 169° |
| 2026-04-24 05:07 | -33.11144 | 151.02145 | 12170 ft | 287 kts | 169° |
| 2026-04-24 05:07 | -33.13088 | 151.02490 | 11809 ft | 285 kts | 168° |
| 2026-04-24 05:08 | -33.15055 | 151.02841 | 11454 ft | 283 kts | 168° |
| 2026-04-24 05:08 | -33.16994 | 151.03189 | 11086 ft | 281 kts | 168° |
| 2026-04-24 05:08 | -33.18920 | 151.03536 | 10738 ft | 279 kts | 168° |
| 2026-04-24 05:08 | -33.20823 | 151.03876 | 10395 ft | 277 kts | 168° |
| 2026-04-24 05:09 | -33.22691 | 151.04210 | 10178 ft | 270 kts | 168° |
| 2026-04-24 05:09 | -33.24548 | 151.04547 | 9882 ft | 269 kts | 168° |
| 2026-04-24 05:09 | -33.26418 | 151.04903 | 9639 ft | 270 kts | 167° |
| 2026-04-24 05:09 | -33.28279 | 151.05264 | 9392 ft | 271 kts | 168° |
| 2026-04-24 05:10 | -33.30127 | 151.05621 | 9149 ft | 270 kts | 168° |
| 2026-04-24 05:10 | -33.31987 | 151.05980 | 8950 ft | 268 kts | 168° |
| 2026-04-24 05:10 | -33.33840 | 151.06335 | 8933 ft | 268 kts | 168° |
| 2026-04-24 05:10 | -33.35676 | 151.06688 | 8923 ft | 270 kts | 168° |
| 2026-04-24 05:11 | -33.37540 | 151.07045 | 8922 ft | 269 kts | 168° |
| 2026-04-24 05:11 | -33.39400 | 151.07402 | 8892 ft | 270 kts | 168° |
| 2026-04-24 05:11 | -33.41239 | 151.07756 | 8648 ft | 269 kts | 168° |
| 2026-04-24 05:11 | -33.43100 | 151.08113 | 8322 ft | 267 kts | 168° |
| 2026-04-24 05:12 | -33.44921 | 151.08462 | 7993 ft | 266 kts | 168° |
| 2026-04-24 05:12 | -33.46750 | 151.08813 | 7663 ft | 264 kts | 168° |
| 2026-04-24 05:12 | -33.48577 | 151.09164 | 7336 ft | 263 kts | 168° |
| 2026-04-24 05:12 | -33.50386 | 151.09512 | 7005 ft | 262 kts | 168° |
| 2026-04-24 05:13 | -33.54062 | 151.10226 | 6354 ft | 290 kts | 168° |
| 2026-04-24 05:13 | -33.56097 | 151.10629 | 5918 ft | 296 kts | 168° |
| 2026-04-24 05:13 | -33.58070 | 151.11005 | 5611 ft | 280 kts | 169° |
| 2026-04-24 05:14 | -33.59966 | 151.11360 | 5254 ft | 269 kts | 168° |
| 2026-04-24 05:14 | -33.61775 | 151.11691 | 4921 ft | 259 kts | 170° |
| 2026-04-24 05:14 | -33.63551 | 151.11928 | 4597 ft | 250 kts | 172° |
| 2026-04-24 05:14 | -33.65251 | 151.12106 | 4306 ft | 241 kts | 173° |
| 2026-04-24 05:15 | -33.66870 | 151.12270 | 4180 ft | 226 kts | 172° |
| 2026-04-24 05:15 | -33.68455 | 151.12442 | 4140 ft | 233 kts | 172° |
| 2026-04-24 05:15 | -33.70085 | 151.12631 | 4055 ft | 234 kts | 172° |
| 2026-04-24 05:15 | -33.71686 | 151.12862 | 3960 ft | 227 kts | 168° |
| 2026-04-24 05:16 | -33.73192 | 151.13200 | 3757 ft | 215 kts | 165° |
| 2026-04-24 05:16 | -33.74573 | 151.13570 | 3530 ft | 193 kts | 164° |
| 2026-04-24 05:16 | -33.75826 | 151.13902 | 3362 ft | 169 kts | 165° |
| 2026-04-24 05:16 | -33.76962 | 151.14194 | 3121 ft | 167 kts | 165° |
| 2026-04-24 05:17 | -33.78096 | 151.14488 | 2965 ft | 165 kts | 164° |
| 2026-04-24 05:17 | -33.79212 | 151.14775 | 2796 ft | 165 kts | 164° |
| 2026-04-24 05:17 | -33.80348 | 151.15068 | 2620 ft | 164 kts | 164° |
| 2026-04-24 05:17 | -33.81471 | 151.15356 | 2458 ft | 168 kts | 163° |
| 2026-04-24 05:18 | -33.82592 | 151.15649 | 2275 ft | 163 kts | 164° |
| 2026-04-24 05:18 | -33.83676 | 151.15927 | 2132 ft | 156 kts | 163° |
| 2026-04-24 05:18 | -33.84717 | 151.16194 | 1949 ft | 149 kts | 163° |
| 2026-04-24 05:18 | -33.85710 | 151.16452 | 1793 ft | 143 kts | 163° |
| 2026-04-24 05:19 | -33.86707 | 151.16711 | 1706 ft | 149 kts | 163° |
| 2026-04-24 05:19 | -33.87734 | 151.16975 | 1515 ft | 150 kts | 164° |
| 2026-04-24 05:19 | -33.88737 | 151.17232 | 1306 ft | 145 kts | 165° |
| 2026-04-24 05:19 | -33.89711 | 151.17482 | 1117 ft | 140 kts | 165° |
| 2026-04-24 05:20 | -33.90662 | 151.17726 | 911 ft | 139 kts | 166° |
| 2026-04-24 05:20 | -33.91595 | 151.17953 | 720 ft | 136 kts | 167° |
| 2026-04-24 05:20 | -33.92549 | 151.18195 | 542 ft | 141 kts | 166° |
| 2026-04-24 05:20 | -33.93522 | 151.18451 | 383 ft | 142 kts | 166° |
| 2026-04-24 05:21 | -33.94460 | 151.18697 | 204 ft | 133 kts | 167° |
| 2026-04-24 05:21 | -33.95373 | 151.18935 | 40 ft | 132 kts | 167° |
| 2026-04-24 05:21 | -33.96147 | 151.19138 | 28 ft | 76 kts | 168° |
| 2026-04-24 05:21 | -33.96462 | 151.19215 | 28 ft | 35 kts | 174° |
| 2026-04-24 05:22 | -33.96671 | 151.19185 | 28 ft | 22 kts | 206° |
| 2026-04-24 05:22 | -33.96652 | 151.19069 | 28 ft | 26 kts | 343° |
| 2026-04-24 05:22 | -33.96404 | 151.19003 | 28 ft | 36 kts | 348° |
| 2026-04-24 05:22 | -33.96175 | 151.18948 | 28 ft | 32 kts | 348° |
| 2026-04-24 05:23 | -33.95968 | 151.18890 | 28 ft | 28 kts | 348° |
| 2026-04-24 05:23 | -33.95782 | 151.18843 | 28 ft | 25 kts | 348° |
| 2026-04-24 05:23 | -33.95605 | 151.18797 | 28 ft | 29 kts | 348° |
| 2026-04-24 05:23 | -33.95370 | 151.18735 | 28 ft | 35 kts | 348° |
| 2026-04-24 05:24 | -33.95170 | 151.18607 | 28 ft | 31 kts | 318° |
| 2026-04-24 05:24 | -33.95131 | 151.18341 | 28 ft | 39 kts | 257° |
| 2026-04-24 05:24 | -33.95159 | 151.18193 | 28 ft | 0 kts | 258° |
| 2026-04-24 05:25 | -33.95159 | 151.18188 | 28 ft | 3 kts | 258° |
| 2026-04-24 05:26 | -33.95173 | 151.18108 | 28 ft | 15 kts | 268° |
| 2026-04-24 05:26 | -33.95045 | 151.18019 | 28 ft | 28 kts | 348° |
| 2026-04-24 05:26 | -33.94837 | 151.17963 | 28 ft | 31 kts | 348° |
| 2026-04-24 05:26 | -33.94614 | 151.17906 | 28 ft | 32 kts | 346° |
| 2026-04-24 05:27 | -33.94445 | 151.17911 | 28 ft | 22 kts | 7° |
| 2026-04-24 05:27 | -33.94255 | 151.17870 | 28 ft | 28 kts | 347° |
| 2026-04-24 05:27 | -33.94144 | 151.17842 | 28 ft | 0 kts | 348° |
| 2026-04-24 05:27 | -33.94142 | 151.17842 | 28 ft | 2 kts | 348° |
| 2026-04-24 05:28 | -33.94032 | 151.17813 | 28 ft | 26 kts | 348° |
| 2026-04-24 05:28 | -33.93870 | 151.17761 | 28 ft | 20 kts | 310° |
| 2026-04-24 05:28 | -33.93759 | 151.17691 | 28 ft | 22 kts | 348° |
| 2026-04-24 05:28 | -33.93583 | 151.17610 | 28 ft | 32 kts | 348° |
| 2026-04-24 05:29 | -33.93384 | 151.17590 | 28 ft | 26 kts | 354° |
| 2026-04-24 05:29 | -33.93215 | 151.17546 | 28 ft | 23 kts | 347° |
| 2026-04-24 05:29 | -33.93070 | 151.17526 | 28 ft | 19 kts | 18° |
| 2026-04-24 05:29 | -33.93012 | 151.17635 | 28 ft | 16 kts | 102° |
| 2026-04-24 05:30 | -33.93059 | 151.17780 | 28 ft | 18 kts | 104° |
| 2026-04-24 05:30 | -33.93084 | 151.17873 | 28 ft | 4 kts | 184° |
| 2026-04-24 05:30 | -33.93123 | 151.17865 | 28 ft | 5 kts | 191° |
| 2026-04-24 05:30 | -33.93145 | 151.17859 | 28 ft | 0 kts | 191° |
| 2026-04-24 05:31 | -33.93146 | 151.17859 | 28 ft | 0 kts | 191° |